createdAt,value
2018-09-13T00:01:40.128Z,2.00
2018-09-13T00:04:08.707Z,3.98
2018-09-13T00:06:37.500Z,3.17
2018-09-13T00:09:08.105Z,1.90
2018-09-13T00:11:36.856Z,2.62
2018-09-13T00:14:05.595Z,2.40
2018-09-13T00:16:34.531Z,2.02
2018-09-13T00:19:03.267Z,3.98
2018-09-13T00:21:31.906Z,2.20
2018-09-13T00:24:00.521Z,2.00
2018-09-13T00:26:29.529Z,3.27
2018-09-13T00:28:58.341Z,2.12
2018-09-13T00:31:28.540Z,2.12
2018-09-13T00:33:58.315Z,2.15
2018-09-13T00:36:27.036Z,1.95
2018-09-13T00:38:55.578Z,2.30
2018-09-13T00:41:24.109Z,3.90
2018-09-13T00:43:54.578Z,3.05
2018-09-13T00:46:27.305Z,2.27
2018-09-13T00:48:57.882Z,2.00
2018-09-13T00:51:27.237Z,2.40
2018-09-13T00:53:57.819Z,2.80
2018-09-13T00:56:29.116Z,2.92
2018-09-13T00:59:00.613Z,2.17
2018-09-13T01:01:32.023Z,3.52
2018-09-13T01:04:00.635Z,1.75
2018-09-13T01:06:29.303Z,2.95
2018-09-13T01:08:57.886Z,2.75
2018-09-13T01:11:26.603Z,2.40
2018-09-13T01:13:55.311Z,2.70
2018-09-13T01:16:23.975Z,2.45
2018-09-13T01:18:52.754Z,2.47
2018-09-13T01:21:21.265Z,3.50
2018-09-13T01:23:50.249Z,2.72
2018-09-13T01:26:18.776Z,5.37
2018-09-13T01:28:47.383Z,3.67
2018-09-13T01:31:15.986Z,2.72
2018-09-13T01:33:44.461Z,2.37
2018-09-13T01:36:13.027Z,2.33
2018-09-13T01:38:46.667Z,3.50
2018-09-13T01:41:15.192Z,3.50
2018-09-13T01:43:43.861Z,3.65
2018-09-13T01:46:12.511Z,2.85
2018-09-13T01:48:41.276Z,2.45
2018-09-13T01:51:09.773Z,3.20
2018-09-13T01:53:38.580Z,4.47
2018-09-13T01:56:07.121Z,2.92
2018-09-13T01:58:35.625Z,3.40
2018-09-13T02:01:04.160Z,4.78
2018-09-13T02:03:32.607Z,2.40
2018-09-13T02:06:01.381Z,2.35
2018-09-13T02:08:29.800Z,2.92
2018-09-13T02:10:58.235Z,4.72
2018-09-13T02:13:29.729Z,2.98
2018-09-13T02:15:58.314Z,2.50
2018-09-13T02:18:26.865Z,3.55
2018-09-13T02:20:55.429Z,2.25
2018-09-13T02:23:24.166Z,2.45
2018-09-13T02:25:53.065Z,2.08
2018-09-13T02:28:21.917Z,2.20
2018-09-13T02:30:50.468Z,3.62
2018-09-13T02:33:19.071Z,2.15
2018-09-13T02:35:47.761Z,4.22
2018-09-13T02:38:21.299Z,3.00
2018-09-13T02:40:49.902Z,2.92
2018-09-13T02:43:18.468Z,4.45
2018-09-13T02:45:47.185Z,3.45
2018-09-13T02:48:15.795Z,2.27
2018-09-13T02:50:44.519Z,2.75
2018-09-13T02:53:13.117Z,3.10
2018-09-13T02:55:41.843Z,2.37
2018-09-13T02:58:24.025Z,2.92
2018-09-13T03:00:52.504Z,2.85
2018-09-13T03:03:21.591Z,2.60
2018-09-13T03:05:50.156Z,2.20
2018-09-13T03:08:23.787Z,2.83
2018-09-13T03:10:52.302Z,4.85
2018-09-13T03:13:20.874Z,4.90
2018-09-13T03:15:49.432Z,5.30
2018-09-13T03:18:18.091Z,4.17
2018-09-13T03:20:46.849Z,2.70
2018-09-13T03:23:15.386Z,2.60
2018-09-13T03:25:43.956Z,2.50
2018-09-13T03:28:35.127Z,2.42
2018-09-13T03:31:03.738Z,4.80
2018-09-13T03:33:32.316Z,2.40
2018-09-13T03:36:01.093Z,5.22
2018-09-13T03:38:29.627Z,3.58
2018-09-13T03:40:58.446Z,3.60
2018-09-13T03:43:27.143Z,3.65
2018-09-13T03:45:55.750Z,2.00
2018-09-13T03:48:24.309Z,3.33
2018-09-13T03:50:52.917Z,3.22
2018-09-13T03:53:21.372Z,4.78
2018-09-13T03:55:50.036Z,2.90
2018-09-13T03:58:23.678Z,3.08
2018-09-13T04:00:52.494Z,5.05
2018-09-13T04:03:21.122Z,2.47
2018-09-13T04:05:49.745Z,4.50
2018-09-13T04:08:18.362Z,7.37
2018-09-13T04:10:47.154Z,2.65
2018-09-13T04:13:18.948Z,2.75
2018-09-13T04:15:47.719Z,3.22
2018-09-13T04:18:20.241Z,2.77
2018-09-13T04:21:01.617Z,1.98
2018-09-13T04:23:40.354Z,2.15
2018-09-13T04:26:08.982Z,2.22
2018-09-13T04:28:46.899Z,2.55
2018-09-13T04:31:15.786Z,2.00
2018-09-13T04:33:44.474Z,2.58
2018-09-13T04:36:13.355Z,3.67
2018-09-13T04:38:41.930Z,3.85
2018-09-13T04:41:10.668Z,2.65
2018-09-13T04:43:39.408Z,4.53
2018-09-13T04:46:08.140Z,2.95
2018-09-13T04:48:36.739Z,3.40
2018-09-13T04:51:05.344Z,3.52
2018-09-13T04:53:34.035Z,3.42
2018-09-13T04:56:02.614Z,3.77
2018-09-13T04:58:31.672Z,3.10
2018-09-13T05:01:00.211Z,7.15
2018-09-13T05:03:28.847Z,5.83
2018-09-13T05:05:57.379Z,6.87
2018-09-13T05:08:26.239Z,7.78
2018-09-13T05:10:54.856Z,4.40
2018-09-13T05:13:23.337Z,3.77
2018-09-13T05:15:51.978Z,3.87
2018-09-13T05:18:20.434Z,3.67
2018-09-13T05:20:48.970Z,5.00
2018-09-13T05:23:17.446Z,5.08
2018-09-13T05:25:46.005Z,4.37
2018-09-13T05:28:14.696Z,5.33
2018-09-13T05:30:43.580Z,4.33
2018-09-13T05:33:12.233Z,4.55
2018-09-13T05:35:40.695Z,2.92
2018-09-13T05:38:09.278Z,3.90
2018-09-13T05:40:37.899Z,3.70
2018-09-13T05:43:07.365Z,5.05
2018-09-13T05:45:36.439Z,4.05
2018-09-13T05:48:05.024Z,6.35
2018-09-13T05:50:34.854Z,5.75
2018-09-13T05:53:03.830Z,2.92
2018-09-13T05:55:32.420Z,4.72
2018-09-13T05:58:00.984Z,5.28
2018-09-13T06:00:34.248Z,6.45
2018-09-13T06:03:02.692Z,5.87
2018-09-13T06:05:31.174Z,3.10
2018-09-13T06:07:59.741Z,4.12
2018-09-13T06:10:28.270Z,4.08
2018-09-13T06:12:56.818Z,4.67
2018-09-13T06:15:25.336Z,4.58
2018-09-13T06:17:59.071Z,5.50
2018-09-13T06:20:32.609Z,4.80
2018-09-13T06:23:01.890Z,5.28
2018-09-13T06:25:30.647Z,5.55
2018-09-13T06:27:59.192Z,6.42
2018-09-13T06:30:28.540Z,5.47
2018-09-13T06:33:01.628Z,6.33
2018-09-13T06:35:30.280Z,8.13
2018-09-13T06:37:59.792Z,6.50
2018-09-13T06:40:28.484Z,5.67
2018-09-13T06:42:56.883Z,5.87
2018-09-13T06:45:25.447Z,5.42
2018-09-13T06:47:54.061Z,7.35
2018-09-13T06:50:22.561Z,5.35
2018-09-13T06:52:51.193Z,8.28
2018-09-13T06:55:19.703Z,5.60
2018-09-13T06:57:48.379Z,6.08
2018-09-13T07:00:17.288Z,6.37
2018-09-13T07:02:45.801Z,4.97
2018-09-13T07:05:14.306Z,5.10
2018-09-13T07:07:42.821Z,7.20
2018-09-13T07:10:11.641Z,4.25
2018-09-13T07:12:40.116Z,5.00
2018-09-13T07:15:08.803Z,5.90
2018-09-13T07:17:37.307Z,5.95
2018-09-13T07:20:06.608Z,4.97
2018-09-13T07:22:35.652Z,7.55
2018-09-13T07:25:04.906Z,8.40
2018-09-13T07:27:33.518Z,5.30
2018-09-13T07:30:02.160Z,7.08
2018-09-13T07:32:30.742Z,6.55
2018-09-13T07:34:59.362Z,9.33
2018-09-13T07:37:28.096Z,7.08
2018-09-13T07:40:01.786Z,7.17
2018-09-13T07:42:33.126Z,6.25
2018-09-13T07:45:01.790Z,7.05
2018-09-13T07:47:32.580Z,4.85
2018-09-13T07:50:01.346Z,4.97
2018-09-13T07:52:29.924Z,5.92
2018-09-13T07:54:58.576Z,7.35
2018-09-13T07:57:27.286Z,5.37
2018-09-13T07:59:55.797Z,5.53
2018-09-13T08:02:24.613Z,6.17
2018-09-13T08:04:53.280Z,5.30
2018-09-13T08:07:22.272Z,3.40
2018-09-13T08:09:50.954Z,4.53
2018-09-13T08:12:19.600Z,7.55
2018-09-13T08:14:49.494Z,6.00
2018-09-13T08:17:17.944Z,5.60
2018-09-13T08:19:46.557Z,7.20
2018-09-13T08:22:15.696Z,6.05
2018-09-13T08:24:44.241Z,5.97
2018-09-13T08:27:12.713Z,5.70
2018-09-13T08:29:41.288Z,6.20
2018-09-13T08:32:10.220Z,7.20
2018-09-13T08:34:38.961Z,9.20
2018-09-13T08:37:07.555Z,6.30
2018-09-13T08:39:36.090Z,5.95
2018-09-13T08:42:05.556Z,14.33
2018-09-13T08:44:34.088Z,6.17
2018-09-13T08:47:02.595Z,5.92
2018-09-13T08:49:31.401Z,5.97
2018-09-13T08:51:59.991Z,9.50
2018-09-13T08:54:28.508Z,7.50
2018-09-13T08:56:57.111Z,7.70
2018-09-13T08:59:25.847Z,7.65
2018-09-13T09:01:54.387Z,7.45
2018-09-13T09:04:23.012Z,5.85
2018-09-13T09:06:51.782Z,6.45
2018-09-13T09:09:20.304Z,9.65
2018-09-13T09:11:48.880Z,10.32
2018-09-13T09:14:17.389Z,6.53
2018-09-13T09:16:45.985Z,11.48
2018-09-13T09:19:14.650Z,7.83
2018-09-13T09:21:43.282Z,5.75
2018-09-13T09:24:11.967Z,11.33
2018-09-13T09:26:40.484Z,9.88
2018-09-13T09:29:09.190Z,11.75
2018-09-13T09:31:37.675Z,8.60
2018-09-13T09:34:06.195Z,9.05
2018-09-13T09:36:34.679Z,6.03
2018-09-13T09:39:03.603Z,10.80
2018-09-13T09:41:34.022Z,8.60
2018-09-13T09:44:02.750Z,6.33
2018-09-13T09:46:31.368Z,8.20
2018-09-13T09:48:59.977Z,5.95
2018-09-13T09:51:28.884Z,10.48
2018-09-13T09:53:57.478Z,8.60
2018-09-13T09:56:26.346Z,6.60
2018-09-13T09:59:04.453Z,9.10
2018-09-13T10:01:36.521Z,10.45
2018-09-13T10:04:05.576Z,8.70
2018-09-13T10:06:34.494Z,11.25
2018-09-13T10:09:03.280Z,13.30
2018-09-13T10:11:32.017Z,9.90
2018-09-13T10:14:00.885Z,8.13
2018-09-13T10:16:34.670Z,10.48
2018-09-13T10:21:13.744Z,10.72
2018-09-13T10:23:47.607Z,10.48
2018-09-13T10:26:21.291Z,9.20
2018-09-13T10:28:55.060Z,13.93
2018-09-13T10:31:30.211Z,9.53
2018-09-13T10:36:06.593Z,6.97
2018-09-13T10:38:44.774Z,10.75
2018-09-13T10:41:19.146Z,12.30
2018-09-13T10:43:52.902Z,8.15
2018-09-13T10:46:25.452Z,10.15
2018-09-13T10:48:59.403Z,7.55
2018-09-13T10:51:33.260Z,7.37
2018-09-13T10:54:11.337Z,12.40
2018-09-13T10:56:40.496Z,10.85
2018-09-13T10:59:10.011Z,8.95
2018-09-13T11:01:39.365Z,10.98
2018-09-13T11:04:09.551Z,7.22
2018-09-13T11:06:38.048Z,10.08
2018-09-13T11:09:07.528Z,10.32
2018-09-13T11:11:36.182Z,11.00
2018-09-13T11:14:15.301Z,7.25
2018-09-13T11:16:51.061Z,9.50
2018-09-13T11:19:19.974Z,9.70
2018-09-13T11:21:48.589Z,10.20
2018-09-13T11:24:17.063Z,13.00
2018-09-13T11:26:45.684Z,11.10
2018-09-13T11:29:14.222Z,9.08
2018-09-13T11:31:43.012Z,10.70
2018-09-13T11:34:11.595Z,9.23
2018-09-13T11:36:40.146Z,9.45
2018-09-13T11:39:11.097Z,11.33
2018-09-13T11:41:39.923Z,9.63
2018-09-13T11:44:09.316Z,11.50
2018-09-13T11:46:38.158Z,11.57
2018-09-13T11:49:06.840Z,12.88
2018-09-13T11:51:35.695Z,13.00
2018-09-13T11:54:04.582Z,10.93
2018-09-13T11:56:33.200Z,14.78
2018-09-13T11:59:02.001Z,14.00
2018-09-13T12:01:30.816Z,13.85
2018-09-13T12:03:59.274Z,12.15
2018-09-13T12:06:27.875Z,15.40
2018-09-13T12:08:56.498Z,13.98
2018-09-13T12:11:25.083Z,19.07
2018-09-13T12:13:54.045Z,16.40
2018-09-13T12:16:22.795Z,16.07
2018-09-13T12:18:51.556Z,11.30
2018-09-13T12:21:20.220Z,14.78
2018-09-13T12:23:48.906Z,16.25
2018-09-13T12:26:17.466Z,17.00
2018-09-13T12:28:46.023Z,11.65
2018-09-13T12:31:14.869Z,10.00
2018-09-13T12:33:43.597Z,13.28
2018-09-13T12:36:12.166Z,12.88
2018-09-13T12:38:40.947Z,11.65
2018-09-13T12:41:09.635Z,12.43
2018-09-13T12:43:38.231Z,14.20
2018-09-13T12:46:07.265Z,15.00
2018-09-13T12:48:49.443Z,16.23
2018-09-13T12:51:17.905Z,13.55
2018-09-13T12:53:47.974Z,14.23
2018-09-13T12:56:16.625Z,12.07
2018-09-13T12:58:45.400Z,16.70
2018-09-13T13:01:14.030Z,11.70
2018-09-13T13:03:42.835Z,13.32
2018-09-13T13:06:11.445Z,15.15
2018-09-13T13:08:40.062Z,8.98
2018-09-13T13:11:10.225Z,7.85
2018-09-13T13:13:39.511Z,5.70
2018-09-13T13:16:08.465Z,8.88
2018-09-13T13:18:46.594Z,8.13
2018-09-13T13:21:15.143Z,9.83
2018-09-13T13:23:44.090Z,11.20
2018-09-13T13:26:12.766Z,11.48
2018-09-13T13:28:41.357Z,6.72
2018-09-13T13:31:10.214Z,12.15
2018-09-13T13:33:38.637Z,11.70
2018-09-13T13:36:07.690Z,13.72
2018-09-13T13:38:41.433Z,15.93
2018-09-13T13:41:10.084Z,8.48
2018-09-13T13:43:38.710Z,15.10
2018-09-13T13:46:08.446Z,16.52
2018-09-13T13:48:37.158Z,9.43
2018-09-13T13:51:05.841Z,14.55
2018-09-13T13:53:34.403Z,10.72
2018-09-13T13:56:03.267Z,12.25
2018-09-13T13:58:32.077Z,11.88
2018-09-13T14:01:00.906Z,12.53
2018-09-13T14:03:29.413Z,13.65
2018-09-13T14:05:58.417Z,12.03
2018-09-13T14:08:27.206Z,11.28
2018-09-13T14:10:55.711Z,14.35
2018-09-13T14:13:24.233Z,8.98
2018-09-13T14:15:52.944Z,10.40
2018-09-13T14:18:21.513Z,10.38
2018-09-13T14:20:50.149Z,16.45
2018-09-13T14:23:18.702Z,12.50
2018-09-13T14:25:50.438Z,13.30
2018-09-13T14:28:19.043Z,9.40
2018-09-13T14:30:47.594Z,10.25
2018-09-13T14:33:16.145Z,12.28
2018-09-13T14:35:44.901Z,10.82
2018-09-13T14:38:13.375Z,10.15
2018-09-13T14:40:42.098Z,13.83
2018-09-13T14:43:10.698Z,10.95
2018-09-13T14:45:39.486Z,13.20
2018-09-13T14:48:08.082Z,9.38
2018-09-13T14:50:36.638Z,11.83
2018-09-13T14:53:05.254Z,10.70
2018-09-13T14:55:33.908Z,12.05
2018-09-13T14:58:02.802Z,14.68
2018-09-13T15:00:31.668Z,11.80
2018-09-13T15:03:00.343Z,10.98
2018-09-13T15:05:28.793Z,12.25
2018-09-13T15:08:02.376Z,11.40
2018-09-13T15:10:33.032Z,12.98
2018-09-13T15:13:01.627Z,11.00
2018-09-13T15:15:30.157Z,13.60
2018-09-13T15:17:58.833Z,15.65
2018-09-13T15:20:27.844Z,9.73
2018-09-13T15:22:56.526Z,12.75
2018-09-13T15:25:25.041Z,16.85
2018-09-13T15:27:54.053Z,14.38
2018-09-13T15:30:22.554Z,12.73
2018-09-13T15:32:51.938Z,11.25
2018-09-13T15:35:21.101Z,11.40
2018-09-13T15:37:49.935Z,11.68
2018-09-13T15:40:19.754Z,15.35
2018-09-13T15:42:48.402Z,12.40
2018-09-13T15:45:17.003Z,11.28
2018-09-13T15:47:45.551Z,9.55
2018-09-13T15:50:14.619Z,9.15
2018-09-13T15:52:43.231Z,14.13
2018-09-13T15:55:11.889Z,11.43
2018-09-13T15:57:40.503Z,12.45
2018-09-13T16:00:14.413Z,14.58
2018-09-13T16:02:43.075Z,13.10
2018-09-13T16:05:11.623Z,11.85
2018-09-13T16:07:40.293Z,13.30
2018-09-13T16:10:09.145Z,13.88
2018-09-13T16:12:38.155Z,11.43
2018-09-13T16:15:07.631Z,12.28
2018-09-13T16:17:36.305Z,12.60
2018-09-13T16:20:10.177Z,11.45
2018-09-13T16:22:38.866Z,12.00
2018-09-13T16:25:07.917Z,12.33
2018-09-13T16:27:36.859Z,12.15
2018-09-13T16:30:05.595Z,13.35
2018-09-13T16:32:34.136Z,13.32
2018-09-13T16:35:02.950Z,12.05
2018-09-13T16:37:36.664Z,15.20
2018-09-13T16:40:15.911Z,13.90
2018-09-13T16:42:53.864Z,10.72
2018-09-13T16:45:29.771Z,12.20
2018-09-13T16:47:59.889Z,11.53
2018-09-13T16:50:29.142Z,11.80
2018-09-13T16:52:57.926Z,11.70
2018-09-13T16:55:26.637Z,12.65
2018-09-13T16:58:00.423Z,13.10
2018-09-13T17:00:29.187Z,11.03
2018-09-13T17:02:57.762Z,13.20
2018-09-13T17:05:26.496Z,10.55
2018-09-13T17:07:55.109Z,9.83
2018-09-13T17:10:23.746Z,13.20
2018-09-13T17:12:52.320Z,10.68
2018-09-13T17:15:21.847Z,10.00
2018-09-13T17:17:50.501Z,10.78
2018-09-13T17:20:21.594Z,13.43
2018-09-13T17:22:50.231Z,11.05
2018-09-13T17:25:18.931Z,11.35
2018-09-13T17:27:48.674Z,9.35
2018-09-13T17:30:17.684Z,9.88
2018-09-13T17:32:46.340Z,8.60
2018-09-13T17:35:14.993Z,9.63
2018-09-13T17:37:43.696Z,12.00
2018-09-13T17:40:12.457Z,12.15
2018-09-13T17:42:41.458Z,10.40
2018-09-13T17:45:09.965Z,9.93
2018-09-13T17:47:38.738Z,11.83
2018-09-13T17:50:13.359Z,10.98
2018-09-13T17:52:42.040Z,11.40
2018-09-13T17:55:10.667Z,11.65
2018-09-13T17:57:40.796Z,9.20
2018-09-13T18:00:10.911Z,12.03
2018-09-13T18:02:39.696Z,9.43
2018-09-13T18:05:08.718Z,11.85
2018-09-13T18:07:37.294Z,10.58
2018-09-13T18:10:10.945Z,11.93
2018-09-13T18:12:39.923Z,11.63
2018-09-13T18:15:08.707Z,10.13
2018-09-13T18:17:37.231Z,15.08
2018-09-13T18:20:05.869Z,10.30
2018-09-13T18:22:35.085Z,12.50
2018-09-13T18:25:04.761Z,9.18
2018-09-13T18:27:35.252Z,9.80
2018-09-13T18:30:04.202Z,11.83
2018-09-13T18:32:32.821Z,8.98
2018-09-13T18:35:01.527Z,11.35
2018-09-13T18:37:31.181Z,10.30
2018-09-13T18:40:01.315Z,9.13
2018-09-13T18:42:29.852Z,9.93
2018-09-13T18:44:58.739Z,10.25
2018-09-13T18:47:27.624Z,12.33
2018-09-13T18:49:56.459Z,11.12
2018-09-13T18:52:26.132Z,9.00
2018-09-13T18:54:54.995Z,9.68
2018-09-13T18:57:23.866Z,9.63
2018-09-13T18:59:52.639Z,9.35
2018-09-13T19:02:21.459Z,10.78
2018-09-13T19:04:50.154Z,10.35
2018-09-13T19:07:18.655Z,10.43
2018-09-13T19:09:47.297Z,11.38
2018-09-13T19:12:15.800Z,13.90
2018-09-13T19:14:45.147Z,12.33
2018-09-13T19:17:14.395Z,14.53
2018-09-13T19:19:45.040Z,12.73
2018-09-13T19:22:13.752Z,12.45
2018-09-13T19:24:47.659Z,14.50
2018-09-13T19:27:16.602Z,11.10
2018-09-13T19:29:49.803Z,11.38
2018-09-13T19:32:22.157Z,11.20
2018-09-13T19:34:51.917Z,11.08
2018-09-13T19:37:23.362Z,11.20
2018-09-13T19:39:52.049Z,12.03
2018-09-13T19:42:21.425Z,10.58
2018-09-13T19:44:50.345Z,10.10
2018-09-13T19:47:18.931Z,11.03
2018-09-13T19:49:47.379Z,9.85
2018-09-13T19:52:16.092Z,10.40
2018-09-13T19:54:44.855Z,10.32
2018-09-13T20:00:01.268Z,13.50
2018-09-13T20:02:32.366Z,14.93
2018-09-13T20:05:00.885Z,9.28
2018-09-13T20:07:29.329Z,10.20
2018-09-13T20:09:58.116Z,8.88
2018-09-13T20:12:26.766Z,11.20
2018-09-13T20:14:55.777Z,12.05
2018-09-13T20:17:25.328Z,10.70
2018-09-13T20:19:53.937Z,8.68
2018-09-13T20:22:23.004Z,8.65
2018-09-13T20:24:51.620Z,10.23
2018-09-13T20:27:20.475Z,12.58
2018-09-13T20:29:49.091Z,7.80
2018-09-13T20:32:17.729Z,8.50
2018-09-13T20:34:46.309Z,7.72
2018-09-13T20:37:16.075Z,10.08
2018-09-13T20:39:45.185Z,9.10
2018-09-13T20:42:13.695Z,8.10
2018-09-13T20:44:42.136Z,7.40
2018-09-13T20:47:10.718Z,9.20
2018-09-13T20:49:39.190Z,10.03
2018-09-13T20:52:07.853Z,8.28
2018-09-13T20:54:36.484Z,8.60
2018-09-13T20:57:06.859Z,8.30
2018-09-13T20:59:37.495Z,7.53
2018-09-13T21:02:10.869Z,7.30
2018-09-13T21:04:41.520Z,6.50
2018-09-13T21:07:14.075Z,11.93
2018-09-13T21:09:42.763Z,8.43
2018-09-13T21:12:11.569Z,7.08
2018-09-13T21:14:40.671Z,5.35
2018-09-13T21:17:09.277Z,5.90
2018-09-13T21:19:37.909Z,4.42
2018-09-13T21:22:06.429Z,6.75
2018-09-13T21:24:35.024Z,7.47
2018-09-13T21:27:03.686Z,4.65
2018-09-13T21:29:32.516Z,4.35
2018-09-13T21:32:01.077Z,5.55
2018-09-13T21:34:29.807Z,6.30
2018-09-13T21:36:58.251Z,5.62
2018-09-13T21:39:26.775Z,5.00
2018-09-13T21:41:55.274Z,5.87
2018-09-13T21:44:23.906Z,4.58
2018-09-13T21:46:52.579Z,5.62
2018-09-13T21:49:21.518Z,6.40
2018-09-13T21:51:50.588Z,8.55
2018-09-13T21:54:19.101Z,5.92
2018-09-13T21:56:48.011Z,6.22
2018-09-13T21:59:16.706Z,4.15
2018-09-13T22:01:45.367Z,4.33
2018-09-13T22:04:13.865Z,6.10
2018-09-13T22:06:42.431Z,5.03
2018-09-13T22:09:11.282Z,3.50
2018-09-13T22:11:41.288Z,5.53
2018-09-13T22:14:09.922Z,3.87
2018-09-13T22:16:38.670Z,5.25
2018-09-13T22:19:07.403Z,5.67
2018-09-13T22:21:35.934Z,3.77
2018-09-13T22:24:05.177Z,6.00
2018-09-13T22:26:34.376Z,8.20
2018-09-13T22:29:03.040Z,4.55
2018-09-13T22:31:31.898Z,4.15
2018-09-13T22:34:00.337Z,5.95
2018-09-13T22:36:28.827Z,4.17
2018-09-13T22:38:57.232Z,3.87
2018-09-13T22:41:25.776Z,2.85
2018-09-13T22:43:54.518Z,2.37
2018-09-13T22:46:24.215Z,3.42
2018-09-13T22:48:52.839Z,2.25
2018-09-13T22:51:23.119Z,3.98
2018-09-13T22:53:51.697Z,2.35
2018-09-13T22:56:20.159Z,3.40
2018-09-13T22:58:48.984Z,4.22
2018-09-13T23:01:17.446Z,3.20
2018-09-13T23:03:46.034Z,4.70
2018-09-13T23:06:14.498Z,5.58
2018-09-13T23:08:43.007Z,4.33
2018-09-13T23:11:11.882Z,6.83
2018-09-13T23:13:40.532Z,5.65
2018-09-13T23:16:09.526Z,5.42
2018-09-13T23:18:38.252Z,4.55
2018-09-13T23:21:07.170Z,4.22
2018-09-13T23:23:35.894Z,4.33
2018-09-13T23:26:04.414Z,3.33
2018-09-13T23:28:33.051Z,2.80
2018-09-13T23:31:01.525Z,4.40
2018-09-13T23:33:29.983Z,3.75
2018-09-13T23:35:58.447Z,3.37
2018-09-13T23:38:26.993Z,4.28
2018-09-13T23:40:55.611Z,2.90
2018-09-13T23:43:24.279Z,2.12
2018-09-13T23:45:52.960Z,4.30
2018-09-13T23:48:21.871Z,3.67
2018-09-13T23:50:50.352Z,2.60
2018-09-13T23:53:19.038Z,3.65
2018-09-13T23:55:47.519Z,2.12
2018-09-13T23:58:16.947Z,3.42
